Time;durP1;ratioP1;P1;durP2;ratioP2;P2;SDS_P1;SDS_P2;PMS_P1;PMS_P2;Temp;Humidity;BMP_temperature;BMP_pressure;BME280_temperature;BME280_humidity;BME280_pressure;Samples;Min_cycle;Max_cycle;Signal;HPM_P1;HPM_P2
2021/08/22 00:02:18;;;;;;;;;6.67;6.00;;;;;20.62;59.36;101507.34;4937803;28;45501;-91
2021/08/22 00:04:43;;;;;;;;;4.67;4.67;;;;;20.56;59.56;101499.84;4953423;28;47309;-92
2021/08/22 00:07:08;;;;;;;;;5.00;5.00;;;;;20.56;59.36;101505.13;4953405;28;45358;-92
2021/08/22 00:09:34;;;;;;;;;6.75;6.75;;;;;20.52;59.41;101493.91;4937249;28;45622;-92
2021/08/22 00:11:59;;;;;;;;;5.33;5.33;;;;;20.51;59.42;101494.84;4954178;28;45471;-92
2021/08/22 00:14:24;;;;;;;;;4.50;4.50;;;;;20.50;59.82;101497.59;4937317;28;47216;-91
2021/08/22 00:16:50;;;;;;;;;5.25;4.25;;;;;20.50;59.76;101494.97;4969978;28;45672;-92
2021/08/22 00:19:15;;;;;;;;;4.75;4.25;;;;;20.48;59.73;101500.34;4938807;28;45261;-92
2021/08/22 00:21:41;;;;;;;;;5.33;4.33;;;;;20.46;59.90;101491.66;4938856;28;45393;-92
2021/08/22 00:24:06;;;;;;;;;5.25;4.00;;;;;20.46;59.95;101491.66;4938675;28;45389;-92
2021/08/22 00:26:32;;;;;;;;;5.00;5.00;;;;;20.48;60.03;101502.13;4953156;28;45482;-92
2021/08/22 00:28:57;;;;;;;;;8.00;5.33;;;;;20.49;60.46;101491.47;4937630;28;45479;-92
2021/08/22 00:31:22;;;;;;;;;4.00;4.00;;;;;20.48;60.08;101495.06;4953555;28;45521;-92
2021/08/22 00:33:48;;;;;;;;;4.00;4.00;;;;;20.43;59.76;101494.50;4953388;28;46999;-91
2021/08/22 00:36:13;;;;;;;;;5.33;5.33;;;;;20.41;60.23;101494.59;4937427;28;45577;-91
2021/08/22 00:38:39;;;;;;;;;5.00;5.00;;;;;20.45;60.28;101505.00;4937377;28;45697;-92
2021/08/22 00:41:04;;;;;;;;;5.00;3.67;;;;;20.41;60.40;101493.78;4937016;28;45389;-92
2021/08/22 00:43:30;;;;;;;;;5.33;5.33;;;;;20.33;60.67;101489.00;4969360;28;46978;-91
2021/08/22 00:45:55;;;;;;;;;7.00;7.00;;;;;20.34;60.26;101492.47;4938458;28;45490;-92
2021/08/22 00:48:21;;;;;;;;;5.00;4.33;;;;;20.29;60.69;101503.34;4937095;28;45403;-91
2021/08/22 00:50:47;;;;;;;;;5.67;5.00;;;;;20.21;60.64;101500.34;4953267;28;45401;-91
2021/08/22 00:53:13;;;;;;;;;6.00;5.00;;;;;20.19;60.81;101503.09;4937107;28;47350;-92
2021/08/22 00:55:39;;;;;;;;;5.00;5.00;;;;;20.17;61.08;101504.97;4953086;28;45653;-91
2021/08/22 00:58:04;;;;;;;;;5.00;5.00;;;;;20.13;61.22;101491.13;4936794;28;45412;-92
2021/08/22 01:00:30;;;;;;;;;5.00;5.00;;;;;20.15;60.56;101502.44;4937378;28;45432;-92
2021/08/22 01:03:11;;;;;;;;;5.75;5.75;;;;;20.17;60.68;101499.69;4952993;28;47976;-91
2021/08/22 01:05:48;;;;;;;;;5.67;5.00;;;;;20.14;60.93;101503.38;4952935;28;45679;-91
2021/08/22 01:08:31;;;;;;;;;5.67;5.67;;;;;20.13;61.22;101496.41;4952833;28;45431;-92
2021/08/22 01:11:16;;;;;;;;;6.00;4.33;;;;;20.12;61.00;101499.16;4952982;28;45774;-92
2021/08/22 01:13:47;;;;;;;;;4.00;4.00;;;;;20.10;61.14;101511.63;4937963;28;45408;-92
2021/08/22 01:16:14;;;;;;;;;5.00;5.00;;;;;20.10;61.22;101506.34;4937022;28;45282;-92
2021/08/22 01:18:42;;;;;;;;;5.67;5.67;;;;;20.09;61.51;101509.94;4937299;28;45372;-92
2021/08/22 01:21:14;;;;;;;;;6.33;5.00;;;;;20.04;61.56;101510.22;4955302;28;45531;-91
2021/08/22 01:23:55;;;;;;;;;4.00;3.33;;;;;20.03;61.63;101511.16;4918639;28;45552;-91
2021/08/22 01:26:40;;;;;;;;;5.00;5.00;;;;;20.05;61.66;101505.78;4943292;28;45303;-92
2021/08/22 01:29:07;;;;;;;;;4.00;4.00;;;;;20.03;61.85;101511.16;4937955;28;45264;-93
2021/08/22 01:31:39;;;;;;;;;5.00;5.00;;;;;19.98;61.90;101492.97;4943075;28;45317;-91
2021/08/22 01:34:04;;;;;;;;;4.67;4.67;;;;;19.97;61.59;101519.47;4936456;28;47824;-92
2021/08/22 01:36:31;;;;;;;;;4.33;4.33;;;;;19.92;61.96;101511.81;4936966;28;45347;-93
2021/08/22 01:38:57;;;;;;;;;6.33;6.00;;;;;19.92;62.32;101511.81;4936398;28;45338;-92
2021/08/22 01:41:24;;;;;;;;;3.00;3.00;;;;;19.97;61.77;101524.75;4936733;28;45279;-93
2021/08/22 01:43:56;;;;;;;;;7.00;5.00;;;;;19.98;61.74;101521.16;4936326;28;47315;-92
2021/08/22 01:46:27;;;;;;;;;5.67;5.67;;;;;20.00;62.01;101522.75;4952429;28;45290;-91
2021/08/22 01:48:53;;;;;;;;;6.00;5.33;;;;;20.00;62.02;101525.41;4952415;28;45385;-93
2021/08/22 01:51:18;;;;;;;;;5.33;4.33;;;;;20.00;61.93;101524.56;4936292;28;45039;-91
2021/08/22 01:53:44;;;;;;;;;6.67;6.67;;;;;20.01;62.05;101521.00;4935284;28;46992;-91
2021/08/22 01:56:10;;;;;;;;;6.00;6.00;;;;;20.03;61.94;101524.38;4936283;28;45294;-92
2021/08/22 01:58:35;;;;;;;;;4.00;4.00;;;;;20.05;61.97;101525.13;4936225;28;45378;-91
2021/08/22 02:01:01;;;;;;;;;6.50;5.25;;;;;20.02;61.55;101522.69;4936299;28;45260;-92
2021/08/22 02:03:46;;;;;;;;;5.00;5.00;;;;;20.00;61.43;101509.56;4937157;28;45407;-91
2021/08/22 02:06:20;;;;;;;;;3.25;3.25;;;;;20.01;61.11;101516.53;4968561;28;45305;-91
2021/08/22 02:08:51;;;;;;;;;5.75;4.25;;;;;20.02;60.94;101525.31;4936040;28;45474;-92
2021/08/22 02:11:42;;;;;;;;;4.00;4.00;;;;;20.00;60.99;101527.22;4937517;28;45456;-92
2021/08/22 02:14:10;;;;;;;;;4.50;3.75;;;;;20.03;61.03;101525.22;4997335;28;47260;-92
2021/08/22 02:16:36;;;;;;;;;4.00;4.00;;;;;20.03;60.63;101527.88;4979918;28;45540;-92
2021/08/22 02:19:03;;;;;;;;;5.00;4.00;;;;;20.03;60.46;101527.88;4979943;28;45316;-92
2021/08/22 02:21:28;;;;;;;;;4.00;4.00;;;;;20.03;60.80;101521.72;4979796;28;45477;-92
2021/08/22 02:23:56;;;;;;;;;7.00;6.00;;;;;19.98;60.68;101514.09;4979368;28;47425;-93
2021/08/22 02:26:22;;;;;;;;;6.25;3.25;;;;;19.97;60.58;101528.25;4980009;28;46073;-92
2021/08/22 02:28:55;;;;;;;;;5.00;4.00;;;;;19.97;60.59;101527.41;4979843;28;45739;-91
2021/08/22 02:31:21;;;;;;;;;5.00;3.67;;;;;19.97;60.36;101527.41;4979982;28;45321;-92
2021/08/22 02:33:46;;;;;;;;;3.25;3.25;;;;;19.96;60.72;101523.94;4979201;28;47086;-92
2021/08/22 02:36:12;;;;;;;;;4.75;4.25;;;;;19.95;60.63;101530.09;4979737;28;45257;-92
2021/08/22 02:38:37;;;;;;;;;7.00;5.00;;;;;19.95;60.20;101529.28;4979682;28;45347;-92
2021/08/22 02:41:02;;;;;;;;;3.00;3.00;;;;;19.94;60.25;101530.22;4979943;28;45332;-92
2021/08/22 02:43:28;;;;;;;;;4.25;3.00;;;;;19.94;59.86;101528.41;4979276;28;47764;-92
2021/08/22 02:45:53;;;;;;;;;5.00;3.00;;;;;19.94;59.82;101532.88;4997414;28;45382;-91
2021/08/22 02:48:19;;;;;;;;;3.00;3.00;;;;;19.93;59.74;101526.72;5015552;28;45528;-93
2021/08/22 02:50:44;;;;;;;;;5.25;3.00;;;;;19.90;59.54;101530.41;4988159;28;45720;-91
2021/08/22 02:53:10;;;;;;;;;5.00;4.00;;;;;19.89;59.84;101536.63;4936733;28;46495;-92
2021/08/22 02:55:36;;;;;;;;;3.00;3.00;;;;;19.90;59.43;101530.41;4951332;28;45456;-92
2021/08/22 02:58:01;;;;;;;;;5.33;5.00;;;;;19.88;59.65;101526.16;4951782;28;45286;-92
2021/08/22 03:00:27;;;;;;;;;2.33;2.33;;;;;19.90;59.37;101532.19;4935434;28;45401;-92
2021/08/22 03:02:52;;;;;;;;;5.00;4.00;;;;;19.91;59.03;101528.63;4935224;28;48075;-91
2021/08/22 03:05:18;;;;;;;;;4.00;4.00;;;;;19.88;59.07;101523.53;4952142;28;45436;-91
2021/08/22 03:07:43;;;;;;;;;3.00;3.00;;;;;19.87;59.48;101525.31;4938584;28;45484;-92
2021/08/22 03:10:09;;;;;;;;;5.00;4.25;;;;;19.88;59.37;101526.16;4938363;28;46839;-92
2021/08/22 03:12:35;;;;;;;;;7.33;5.67;;;;;19.89;58.95;101535.78;4938096;28;46949;-92
2021/08/22 03:15:01;;;;;;;;;3.50;3.50;;;;;19.88;59.49;101532.31;4938355;28;45196;-92
2021/08/22 03:17:26;;;;;;;;;3.67;3.00;;;;;19.86;59.06;101533.34;4939190;28;45266;-92
2021/08/22 03:19:53;;;;;;;;;4.67;3.00;;;;;19.88;58.97;101528.81;4939457;28;45540;-91
2021/08/22 03:22:19;;;;;;;;;3.00;3.00;;;;;19.88;59.28;101528.81;4939358;28;46652;-91
2021/08/22 03:24:44;;;;;;;;;3.25;3.25;;;;;19.85;58.75;101531.63;4937750;28;45526;-92
2021/08/22 03:27:10;;;;;;;;;4.25;3.75;;;;;19.81;58.83;101520.41;4937801;28;45345;-91
2021/08/22 03:29:35;;;;;;;;;5.00;4.00;;;;;19.77;58.40;101524.22;4938087;28;45609;-91
2021/08/22 03:32:00;;;;;;;;;4.25;4.25;;;;;19.69;58.53;101519.41;4953921;28;46822;-92
2021/08/22 03:34:26;;;;;;;;;3.25;3.25;;;;;19.68;58.16;101530.06;4938945;28;44822;-92
2021/08/22 03:36:51;;;;;;;;;5.75;4.00;;;;;19.62;58.17;101526.00;4938043;28;45476;-91
2021/08/22 03:39:17;;;;;;;;;7.25;6.25;;;;;19.60;58.24;101533.16;4937747;28;45361;-91
2021/08/22 03:41:42;;;;;;;;;4.00;4.00;;;;;19.53;58.08;101527.41;4953829;28;47223;-91
2021/08/22 03:44:09;;;;;;;;;5.00;3.67;;;;;19.52;58.16;101532.81;4938975;28;45355;-92
2021/08/22 03:46:34;;;;;;;;;6.00;5.00;;;;;19.47;58.44;101526.00;4938088;28;45447;-91
2021/08/22 03:49:00;;;;;;;;;5.00;5.00;;;;;19.45;58.43;101529.69;4971481;28;44960;-92
2021/08/22 03:51:26;;;;;;;;;5.33;5.33;;;;;19.44;58.36;101523.53;4937554;28;47367;-91
2021/08/22 03:53:52;;;;;;;;;4.33;4.33;;;;;19.40;58.35;101523.84;4938268;28;45246;-93
2021/08/22 03:56:18;;;;;;;;;5.00;4.00;;;;;19.39;58.48;101533.53;4937788;28;45413;-93
2021/08/22 03:58:43;;;;;;;;;5.33;5.33;;;;;19.33;57.93;101540.03;4937948;28;45590;-91
2021/08/22 04:01:09;;;;;;;;;6.67;5.00;;;;;19.33;58.09;101547.97;4937655;28;47006;-92
2021/08/22 04:03:38;;;;;;;;;5.33;5.00;;;;;19.28;58.18;101550.03;4937682;28;45234;-91
2021/08/22 04:06:03;;;;;;;;;7.00;6.50;;;;;19.23;58.10;101544.19;4939428;28;45344;-91
2021/08/22 04:08:31;;;;;;;;;6.75;5.50;;;;;19.19;58.38;101543.53;4937957;28;45327;-92
2021/08/22 04:10:57;;;;;;;;;5.00;4.00;;;;;19.16;58.00;101548.97;4955152;28;47273;-92
2021/08/22 04:13:22;;;;;;;;;5.00;4.00;;;;;19.12;58.08;101557.16;4934173;28;45199;-92
2021/08/22 04:15:47;;;;;;;;;3.25;3.25;;;;;19.07;58.32;101547.72;4918156;28;45306;-92
2021/08/22 04:18:13;;;;;;;;;8.50;5.75;;;;;19.03;57.98;101548.84;4918379;28;45298;-91
2021/08/22 04:20:40;;;;;;;;;10.75;5.75;;;;;19.01;58.42;101548.06;4924061;28;48524;-92
2021/08/22 04:23:07;;;;;;;;;8.50;5.50;;;;;18.97;58.05;101554.44;4938660;28;45321;-91
2021/08/22 04:25:32;;;;;;;;;5.25;5.00;;;;;18.92;58.50;101551.22;5014851;28;46330;-92
2021/08/22 04:27:58;;;;;;;;;4.00;4.00;;;;;18.92;58.48;101557.38;4938310;28;45510;-91
2021/08/22 04:30:23;;;;;;;;;5.00;4.33;;;;;18.89;58.38;101551.44;4937429;28;48109;-92
2021/08/22 04:32:49;;;;;;;;;5.67;5.00;;;;;18.89;58.01;101562.81;4938273;28;45301;-92
2021/08/22 04:35:14;;;;;;;;;5.33;5.33;;;;;18.89;58.09;101551.44;4937602;28;45306;-91
2021/08/22 04:37:41;;;;;;;;;4.00;4.00;;;;;18.86;58.06;101548.94;4937802;28;45387;-91
2021/08/22 04:40:08;;;;;;;;;4.67;4.00;;;;;18.81;58.20;101557.13;4937044;28;47062;-91
2021/08/22 04:42:33;;;;;;;;;5.00;4.00;;;;;18.80;58.01;101558.09;4936536;28;45432;-92
2021/08/22 04:44:59;;;;;;;;;4.00;4.00;;;;;18.75;58.19;101553.06;4937113;28;45407;-92
2021/08/22 04:47:25;;;;;;;;;4.33;3.00;;;;;18.75;58.19;101546.94;4937747;28;45433;-92
2021/08/22 04:49:51;;;;;;;;;4.00;4.00;;;;;18.77;58.07;101551.19;4936990;28;47271;-92
2021/08/22 04:52:16;;;;;;;;;6.33;4.67;;;;;18.74;58.10;101546.09;4936850;28;45465;-91
2021/08/22 04:54:42;;;;;;;;;4.67;4.67;;;;;18.74;58.06;101564.53;4953275;28;45376;-92
2021/08/22 04:57:08;;;;;;;;;6.33;4.00;;;;;18.74;58.28;101545.25;4937394;28;45353;-91
2021/08/22 04:59:33;;;;;;;;;6.33;6.00;;;;;18.74;58.24;101559.28;4938003;28;45536;-92
2021/08/22 05:01:59;;;;;;;;;5.00;4.67;;;;;18.69;58.12;101561.31;4936662;28;45411;-92
2021/08/22 05:04:24;;;;;;;;;5.67;4.33;;;;;18.60;58.36;101561.88;4952970;28;44769;-92
2021/08/22 05:06:50;;;;;;;;;4.00;4.00;;;;;18.58;58.17;101564.59;4937281;28;44809;-92
2021/08/22 05:09:15;;;;;;;;;4.67;4.00;;;;;18.50;58.21;101570.28;4936703;28;48396;-91
2021/08/22 05:11:40;;;;;;;;;4.67;4.67;;;;;18.46;58.43;101575.84;4936812;28;45136;-91
2021/08/22 05:14:06;;;;;;;;;4.00;4.00;;;;;18.45;58.60;101576.75;4953205;28;45440;-92
2021/08/22 05:16:31;;;;;;;;;3.33;3.33;;;;;18.47;58.58;101578.34;4938511;28;44734;-90
2021/08/22 05:18:57;;;;;;;;;4.00;4.00;;;;;18.49;58.40;101578.28;4952969;28;47005;-91
2021/08/22 05:21:22;;;;;;;;;4.67;3.33;;;;;18.47;58.30;101573.09;4936743;28;45772;-92
2021/08/22 05:23:48;;;;;;;;;5.67;4.00;;;;;18.43;57.98;101572.41;4936826;28;45363;-92
2021/08/22 05:26:13;;;;;;;;;4.00;3.33;;;;;18.37;58.41;101571.94;4953295;28;45600;-91
2021/08/22 05:28:39;;;;;;;;;3.67;3.67;;;;;18.37;58.21;101571.94;4935086;28;46961;-91
2021/08/22 05:31:04;;;;;;;;;6.00;4.00;;;;;18.32;58.58;101564.25;4936306;28;45445;-91
2021/08/22 05:33:30;;;;;;;;;5.00;4.67;;;;;18.33;58.46;101576.50;4952798;28;45362;-91
2021/08/22 05:35:55;;;;;;;;;7.67;4.67;;;;;18.33;58.12;101568.59;4936783;28;45529;-91
2021/08/22 05:38:20;;;;;;;;;4.00;3.00;;;;;18.25;58.63;101574.31;4936707;28;47150;-91
2021/08/22 05:40:46;;;;;;;;;5.67;4.00;;;;;18.27;58.43;101584.75;4952209;28;45392;-91
2021/08/22 05:43:11;;;;;;;;;3.00;3.00;;;;;18.30;58.49;101579.31;4953270;28;44837;-92
2021/08/22 05:45:37;;;;;;;;;3.00;3.00;;;;;18.33;59.01;101581.75;4952809;28;45408;-91
2021/08/22 05:48:02;;;;;;;;;7.00;4.00;;;;;18.33;58.66;101586.19;4936315;28;47089;-93
2021/08/22 05:50:28;;;;;;;;;3.33;3.00;;;;;18.36;58.72;101588.66;4936423;28;45476;-91
2021/08/22 05:52:53;;;;;;;;;5.67;3.33;;;;;18.35;58.30;101587.81;4952434;28;45479;-92
2021/08/22 05:55:20;;;;;;;;;6.00;4.00;;;;;18.37;58.94;101591.19;4952666;28;45250;-92
2021/08/22 05:57:45;;;;;;;;;3.33;3.00;;;;;18.41;58.62;101592.75;4952116;28;47030;-90
2021/08/22 06:00:11;;;;;;;;;3.33;3.33;;;;;18.42;58.46;101596.22;4935910;28;45403;-92
2021/08/22 06:02:37;;;;;;;;;5.67;5.33;;;;;18.43;58.15;101595.28;4936026;28;45338;-91
2021/08/22 06:05:06;;;;;;;;;4.33;3.33;;;;;18.49;58.48;101594.09;4936740;28;45435;-91
2021/08/22 06:07:32;;;;;;;;;7.00;4.33;;;;;18.47;58.20;101598.59;4937083;28;46563;-90
2021/08/22 06:09:58;;;;;;;;;5.33;5.00;;;;;18.49;58.23;101604.63;4935803;28;45375;-92
2021/08/22 06:12:23;;;;;;;;;4.33;4.00;;;;;18.48;58.16;101603.78;4936219;28;45506;-92
2021/08/22 06:14:49;;;;;;;;;3.33;3.33;;;;;18.49;58.48;101602.84;4936600;28;45492;-91
2021/08/22 06:17:14;;;;;;;;;5.00;5.00;;;;;18.49;58.14;101613.41;4935932;28;47165;-91
2021/08/22 06:19:40;;;;;;;;;7.00;3.33;;;;;18.52;58.17;101612.38;4935828;28;45513;-92
2021/08/22 06:22:05;;;;;;;;;5.67;4.33;;;;;18.58;58.66;101617.31;4952286;28;45274;-91
2021/08/22 06:24:32;;;;;;;;;5.00;3.00;;;;;18.58;58.46;101616.44;4950376;28;45436;-91
2021/08/22 06:26:58;;;;;;;;;4.00;3.67;;;;;18.61;58.35;101617.13;4936939;28;47179;-91
2021/08/22 06:29:23;;;;;;;;;3.00;3.00;;;;;18.67;58.38;101624.69;4935391;28;45627;-91
2021/08/22 06:31:51;;;;;;;;;8.33;5.00;;;;;18.66;58.34;101624.78;4951828;28;45416;-96
2021/08/22 06:34:16;;;;;;;;;4.33;3.00;;;;;18.67;58.33;101624.69;4935848;28;45529;-91
2021/08/22 06:36:42;;;;;;;;;3.00;3.00;;;;;18.66;58.57;101622.16;4935596;28;47427;-92
2021/08/22 06:39:08;;;;;;;;;3.67;3.67;;;;;18.65;57.74;101617.81;4934821;28;45301;-92
2021/08/22 06:41:34;;;;;;;;;6.00;4.67;;;;;18.68;57.87;101623.75;4951821;28;45346;-91
2021/08/22 06:44:00;;;;;;;;;6.00;4.67;;;;;18.62;57.92;101616.19;4935499;28;45437;-91
2021/08/22 06:46:25;;;;;;;;;6.67;4.00;;;;;18.65;57.93;101625.72;4951855;28;47286;-92
2021/08/22 06:48:51;;;;;;;;;3.00;3.00;;;;;18.67;58.26;101631.75;4936672;28;45273;-92
2021/08/22 06:51:16;;;;;;;;;5.67;3.00;;;;;18.67;57.72;101637.88;4978920;28;45390;-92
2021/08/22 06:53:42;;;;;;;;;4.33;3.00;;;;;18.68;58.16;101644.00;4935893;28;45430;-91
2021/08/22 06:56:07;;;;;;;;;5.00;3.00;;;;;18.67;57.88;101637.03;4935307;28;47088;-92
2021/08/22 06:58:33;;;;;;;;;5.00;3.75;;;;;18.67;58.05;101635.25;4935543;28;45346;-92
2021/08/22 07:00:58;;;;;;;;;3.00;3.00;;;;;18.67;58.07;101637.88;4936756;28;44652;-92
2021/08/22 07:03:23;;;;;;;;;1.25;1.25;;;;;18.65;58.27;101641.53;4935490;28;45344;-91
2021/08/22 07:05:49;;;;;;;;;6.00;4.00;;;;;18.66;58.22;101646.69;4934797;28;47416;-90
2021/08/22 07:08:14;;;;;;;;;5.00;3.67;;;;;18.66;58.27;101643.22;4935194;28;45759;-91
2021/08/22 07:10:40;;;;;;;;;3.67;3.67;;;;;18.69;58.25;101641.28;4935443;28;45246;-91
2021/08/22 07:13:06;;;;;;;;;5.00;5.00;;;;;18.76;58.04;101652.34;4935112;28;45392;-91
2021/08/22 07:15:32;;;;;;;;;3.00;3.00;;;;;18.80;58.15;101647.72;4934755;28;47276;-91
2021/08/22 07:17:57;;;;;;;;;3.00;3.00;;;;;18.92;58.09;101660.22;4936511;28;45301;-91
2021/08/22 07:20:22;;;;;;;;;4.00;4.00;;;;;18.98;58.24;101655.53;4951353;28;45431;-92
2021/08/22 07:22:48;;;;;;;;;3.67;2.33;;;;;19.08;58.23;101656.75;4935329;28;45459;-91
2021/08/22 07:25:13;;;;;;;;;4.00;3.00;;;;;19.22;58.00;101659.41;4937072;28;47272;-91
2021/08/22 07:27:39;;;;;;;;;6.67;3.33;;;;;19.27;58.11;101651.25;4934342;28;45791;-91
2021/08/22 07:30:05;;;;;;;;;6.00;5.33;;;;;19.32;57.39;101657.09;4934926;28;44958;-92
2021/08/22 07:32:30;;;;;;;;;6.00;3.00;;;;;19.37;57.34;101664.75;4999716;28;45693;-91
2021/08/22 07:34:56;;;;;;;;;2.33;2.33;;;;;19.38;57.63;101671.72;4931496;28;47384;-92
2021/08/22 07:37:21;;;;;;;;;4.00;4.00;;;;;19.38;57.09;101665.59;4931590;28;44659;-91
2021/08/22 07:39:46;;;;;;;;;4.00;2.00;;;;;19.34;57.20;101665.78;4944823;28;45533;-91
2021/08/22 07:42:12;;;;;;;;;7.00;2.00;;;;;19.35;56.86;101670.09;4949911;28;45251;-91
2021/08/22 07:44:37;;;;;;;;;7.00;3.67;;;;;19.38;57.00;101674.34;4934394;28;46879;-91
2021/08/22 07:47:03;;;;;;;;;2.00;1.00;;;;;19.40;57.09;101672.50;4934645;28;45207;-93
2021/08/22 07:49:28;;;;;;;;;3.33;3.00;;;;;19.43;56.98;101672.28;4950364;28;45198;-91
2021/08/22 07:51:54;;;;;;;;;3.67;3.00;;;;;19.45;57.10;101672.22;4936917;28;45336;-91
2021/08/22 07:54:19;;;;;;;;;3.00;3.00;;;;;19.50;56.58;101678.91;4953649;28;48047;-91
2021/08/22 07:56:45;;;;;;;;;3.33;2.00;;;;;19.51;56.71;101682.41;4937592;28;45402;-92
2021/08/22 07:59:10;;;;;;;;;3.67;2.33;;;;;19.53;56.96;101677.03;4994502;28;45278;-91
2021/08/22 08:01:36;;;;;;;;;2.00;2.00;;;;;19.57;56.57;101682.03;4958735;28;44878;-91
2021/08/22 08:04:02;;;;;;;;;1.33;1.33;;;;;19.58;56.63;101686.38;4936700;28;46683;-91
2021/08/22 08:06:28;;;;;;;;;2.00;2.00;;;;;19.61;56.49;101685.34;4968868;28;45070;-91
2021/08/22 08:08:53;;;;;;;;;2.00;2.00;;;;;19.62;56.57;101672.06;4937139;28;45452;-91
2021/08/22 08:11:18;;;;;;;;;3.67;2.00;;;;;19.67;56.23;101677.03;4952847;28;45289;-90
2021/08/22 08:13:44;;;;;;;;;2.00;2.00;;;;;19.72;56.67;101679.44;4933326;28;46785;-90
2021/08/22 08:16:09;;;;;;;;;2.00;2.00;;;;;19.79;56.30;101685.16;4965267;28;45293;-90
2021/08/22 08:18:35;;;;;;;;;1.00;1.00;;;;;19.83;55.72;101687.56;4937272;28;45391;-93
2021/08/22 08:21:03;;;;;;;;;3.67;2.00;;;;;19.84;56.01;101688.38;4937347;28;45224;-90
2021/08/22 08:23:28;;;;;;;;;2.00;2.00;;;;;19.84;55.52;101696.31;4953515;28;47237;-90
2021/08/22 08:25:54;;;;;;;;;1.00;1.00;;;;;19.83;55.44;101698.13;4937785;28;45441;-92
2021/08/22 08:28:20;;;;;;;;;2.00;2.00;;;;;19.86;55.57;101711.13;4937848;28;45419;-92
2021/08/22 08:30:45;;;;;;;;;2.67;2.00;;;;;19.83;55.40;101690.19;4953063;28;45512;-91
2021/08/22 08:33:11;;;;;;;;;2.00;2.00;;;;;19.90;55.71;101702.09;4937780;28;45644;-91
2021/08/22 08:35:36;;;;;;;;;2.67;2.00;;;;;19.96;55.75;101700.00;4953198;28;45517;-92
2021/08/22 08:38:02;;;;;;;;;3.00;3.00;;;;;20.01;55.29;101688.25;4938652;28;45315;-91
2021/08/22 08:40:27;;;;;;;;;2.67;2.00;;;;;20.09;55.72;101694.88;5054303;28;45389;-92
2021/08/22 08:43:06;;;;;;;;;1.67;1.67;;;;;20.16;55.12;101693.53;5010271;28;47003;-91
2021/08/22 08:45:49;;;;;;;;;2.00;2.00;;;;;20.24;54.89;101696.56;4949954;28;45355;-90
2021/08/22 08:48:21;;;;;;;;;4.00;2.00;;;;;20.32;54.61;101700.53;4917403;28;44727;-91
2021/08/22 08:50:55;;;;;;;;;2.33;2.00;;;;;20.38;54.28;101698.34;4917542;28;45434;-91
2021/08/22 08:53:22;;;;;;;;;2.00;2.00;;;;;20.41;54.64;101708.72;4927964;28;47350;-89
2021/08/22 08:55:49;;;;;;;;;1.00;1.00;;;;;20.46;54.14;101697.00;4949895;28;45231;-90
2021/08/22 08:58:14;;;;;;;;;3.67;2.67;;;;;20.50;54.02;101711.75;4936003;28;45836;-91
2021/08/22 09:00:42;;;;;;;;;3.67;2.00;;;;;20.56;53.85;101714.00;4936467;28;45254;-91
2021/08/22 09:03:08;;;;;;;;;0.00;0.00;;;;;20.59;53.61;101710.31;4947760;28;46879;-92
2021/08/22 09:05:36;;;;;;;;;4.00;1.00;;;;;20.68;53.60;101709.72;4942628;28;46069;-90
2021/08/22 09:08:20;;;;;;;;;3.33;2.00;;;;;20.79;53.76;101719.63;4936167;28;45724;-90
2021/08/22 09:11:40;;;;;;;;;2.00;2.00;;;;;20.97;53.68;101712.34;4936871;28;45416;-92
2021/08/22 09:14:57;;;;;;;;;2.00;1.33;;;;;21.14;52.93;101713.84;4948597;28;47314;-90
2021/08/22 09:17:41;;;;;;;;;2.00;1.00;;;;;21.33;52.84;101707.34;4957470;28;45389;-90
2021/08/22 09:20:31;;;;;;;;;0.33;0.33;;;;;21.49;52.90;101715.13;4973706;28;45356;-90
2021/08/22 09:23:24;;;;;;;;;1.33;1.33;;;;;21.60;51.75;101707.31;4978875;28;45582;-91
2021/08/22 09:26:27;;;;;;;;;2.33;0.33;;;;;21.64;51.58;101713.22;4941058;28;47144;-91
2021/08/22 09:29:30;;;;;;;;;1.33;1.33;;;;;21.67;51.90;101706.88;4963189;28;45276;-92
2021/08/22 09:32:32;;;;;;;;;3.00;1.33;;;;;21.72;51.34;101707.44;4979942;28;45364;-92
2021/08/22 09:35:25;;;;;;;;;1.00;1.00;;;;;21.75;51.43;101701.94;4964087;28;45373;-92
2021/08/22 09:38:21;;;;;;;;;2.33;1.33;;;;;21.80;51.09;101706.94;4974161;28;46453;-92
2021/08/22 09:41:24;;;;;;;;;1.00;1.00;;;;;21.82;51.11;101702.34;4960130;28;45469;-91
2021/08/22 09:44:02;;;;;;;;;1.00;1.00;;;;;21.76;50.87;101709.78;4992811;28;45474;-91
2021/08/22 09:46:46;;;;;;;;;3.00;2.00;;;;;21.73;51.03;101710.00;4976896;28;45521;-92
2021/08/22 09:49:45;;;;;;;;;1.33;1.33;;;;;21.70;50.88;101709.34;4959967;28;47366;-92
2021/08/22 09:52:37;;;;;;;;;1.67;1.33;;;;;21.63;50.81;101712.38;4951532;28;45700;-91
2021/08/22 09:55:40;;;;;;;;;2.00;2.00;;;;;21.59;51.00;101716.19;4930599;28;45502;-91
2021/08/22 09:58:56;;;;;;;;;2.00;2.00;;;;;21.50;50.93;101706.22;4935905;28;45672;-91
2021/08/22 10:01:50;;;;;;;;;4.00;2.00;;;;;21.47;51.62;101717.88;4927313;28;47143;-93
2021/08/22 10:04:48;;;;;;;;;2.33;1.00;;;;;21.41;51.43;101720.94;4909715;28;45426;-93
2021/08/22 10:07:40;;;;;;;;;4.00;3.00;;;;;21.37;51.32;101724.72;4894653;29;45372;-92
2021/08/22 10:10:13;;;;;;;;;1.67;1.67;;;;;21.31;51.09;101733.06;4901637;28;44883;-93
2021/08/22 10:12:38;;;;;;;;;1.00;1.00;;;;;21.25;51.28;101722.91;4902368;28;47147;-92
2021/08/22 10:15:04;;;;;;;;;1.00;1.00;;;;;21.19;50.83;101737.38;4880042;29;45459;-92
2021/08/22 10:17:30;;;;;;;;;0.67;0.67;;;;;21.12;51.67;101730.78;4882709;29;45423;-92
2021/08/22 10:19:56;;;;;;;;;0.33;0.00;;;;;21.08;51.61;101727.50;4880806;29;45403;-92
2021/08/22 10:22:30;;;;;;;;;1.00;1.00;;;;;21.07;51.94;101734.56;4890713;28;46965;-92
2021/08/22 10:24:58;;;;;;;;;0.67;0.67;;;;;21.01;52.27;101719.09;4881114;29;45277;-93
2021/08/22 10:27:30;;;;;;;;;2.00;1.00;;;;;21.08;52.17;101724.84;4896524;29;45396;-93
2021/08/22 10:30:01;;;;;;;;;0.67;0.67;;;;;21.13;51.92;101727.19;4899576;28;45484;-92
2021/08/22 10:32:27;;;;;;;;;0.33;0.33;;;;;21.18;51.24;101727.72;4997172;28;45422;-92
2021/08/22 10:35:11;;;;;;;;;0.00;0.00;;;;;21.35;51.97;101716.88;4981239;28;45396;-93
2021/08/22 10:37:43;;;;;;;;;1.00;0.33;;;;;21.50;51.00;101719.47;4940551;28;45396;-92
2021/08/22 10:40:39;;;;;;;;;0.00;0.00;;;;;21.63;49.83;101717.66;4936938;28;45309;-92
2021/08/22 10:43:05;;;;;;;;;0.00;0.00;;;;;21.80;50.23;101714.88;5015462;28;48175;-93
2021/08/22 10:45:50;;;;;;;;;0.00;0.00;;;;;21.97;49.74;101717.19;4998977;28;45360;-92
2021/08/22 10:48:21;;;;;;;;;0.00;0.00;;;;;22.13;50.00;101724.94;4994536;28;45485;-92
2021/08/22 10:50:59;;;;;;;;;0.00;0.00;;;;;22.28;49.56;101725.66;4990307;28;45426;-92
2021/08/22 10:53:28;;;;;;;;;1.33;0.00;;;;;22.38;49.10;101717.91;4996200;28;48376;-93
2021/08/22 10:55:55;;;;;;;;;0.00;0.00;;;;;22.48;49.62;101720.75;4986247;28;45927;-93
2021/08/22 10:58:29;;;;;;;;;0.67;0.00;;;;;22.64;49.21;101728.47;5006188;28;46441;-92
2021/08/22 11:01:18;;;;;;;;;0.00;0.00;;;;;22.85;49.19;101719.91;4977364;28;45430;-93
2021/08/22 11:04:05;;;;;;;;;0.33;0.00;;;;;23.01;48.81;101716.97;4996777;28;47159;-91
2021/08/22 11:06:31;;;;;;;;;0.00;0.00;;;;;23.18;48.52;101717.53;4989080;28;45402;-92
2021/08/22 11:08:56;;;;;;;;;1.00;0.00;;;;;23.26;48.60;101716.97;5008961;28;45517;-92
2021/08/22 11:11:51;;;;;;;;;;;;;;;;;;;;;
2021/08/22 11:14:27;;;;;;;;;;;;;;;;;;;;;
2021/08/22 11:16:57;;;;;;;;;0.00;0.00;;;;;24.02;47.63;101712.09;5002374;28;71399;-92
2021/08/22 11:19:22;;;;;;;;;0.00;0.00;;;;;24.30;45.94;101701.09;4977048;28;45480;-92
2021/08/22 11:21:49;;;;;;;;;2.00;0.00;;;;;24.49;46.82;101708.47;4934783;28;45545;-91
2021/08/22 11:24:15;;;;;;;;;0.00;0.00;;;;;24.70;46.61;101705.03;4932772;28;47363;-92
2021/08/22 11:26:40;;;;;;;;;0.00;0.00;;;;;25.03;46.57;101707.75;4942050;28;45399;-93
2021/08/22 11:29:06;;;;;;;;;0.00;0.00;;;;;25.44;45.80;101706.09;4936983;28;45481;-93
2021/08/22 11:31:33;;;;;;;;;0.00;0.00;;;;;25.84;46.05;101707.22;4954381;28;45418;-94
2021/08/22 11:34:13;;;;;;;;;0.00;0.00;;;;;26.26;45.43;101710.78;4937785;28;47253;-93
2021/08/22 11:36:40;;;;;;;;;0.67;0.00;;;;;26.60;45.06;101705.09;4938819;28;45293;-93
2021/08/22 11:39:09;;;;;;;;;0.00;0.00;;;;;26.86;43.81;101693.91;4945089;28;45319;-91